Terminal Aerodrome Forecast
Issued by NWS

Current Version | Previous Version | Text Only | Print | Product List | Glossary On
Versions: 1 2 3 4 5 6 7 8 9 10 11 12 13
000
FTUS42 TJSJ 181139
TAFNCM
TAF
TNCM 181139Z 1812/1912 10009KT P6SM SCT019
     FM181300 11012KT P6SM FEW025 SCT040
     FM182200 09008KT P6SM FEW020 SCT050=

USA.gov is the U.S. government's official web portal to all federal, state and local government web resources and services.